Time;durP1;ratioP1;P1;durP2;ratioP2;P2;SDS_P1;SDS_P2;PMS_P1;PMS_P2;Temp;Humidity;BMP_temperature;BMP_pressure;BME280_temperature;BME280_humidity;BME280_pressure;Samples;Min_cycle;Max_cycle;Signal;HPM_P1;HPM_P2
2022/02/17 00:00:58;;;;;;;19.88;4.97;;;10.60;97.60;;;;;;5081339;28;20138;-67
2022/02/17 00:03:24;;;;;;;20.10;4.40;;;10.60;97.50;;;;;;5094216;28;20490;-67
2022/02/17 00:05:50;;;;;;;22.52;5.30;;;10.50;97.70;;;;;;5094962;28;20136;-67
2022/02/17 00:08:18;;;;;;;23.02;4.75;;;10.60;97.70;;;;;;5094726;28;20085;-67
2022/02/17 00:10:44;;;;;;;25.88;5.35;;;10.60;97.70;;;;;;5093884;28;20485;-67
2022/02/17 00:13:09;;;;;;;22.77;5.32;;;10.50;97.70;;;;;;5094850;28;20028;-67
2022/02/17 00:15:36;;;;;;;22.08;4.05;;;10.60;97.80;;;;;;5094443;28;20036;-67
2022/02/17 00:18:11;;;;;;;19.85;5.45;;;10.50;97.70;;;;;;5081927;28;20039;-67
2022/02/17 00:20:37;;;;;;;21.17;4.80;;;10.50;97.60;;;;;;5094867;28;20085;-67
2022/02/17 00:23:02;;;;;;;19.73;4.72;;;10.50;97.50;;;;;;5083948;28;20419;-67
2022/02/17 00:25:28;;;;;;;21.52;5.57;;;10.50;97.50;;;;;;5087285;28;20036;-67
2022/02/17 00:27:54;;;;;;;21.38;5.32;;;10.50;97.40;;;;;;5088071;28;20062;-67
2022/02/17 00:30:19;;;;;;;25.90;4.22;;;10.50;97.50;;;;;;5093735;28;20042;-67
2022/02/17 00:32:45;;;;;;;26.75;5.35;;;10.50;97.60;;;;;;5094244;28;20028;-67
2022/02/17 00:35:11;;;;;;;17.75;4.82;;;10.50;97.50;;;;;;5094426;28;20081;-67
2022/02/17 00:37:38;;;;;;;33.63;7.03;;;10.60;97.40;;;;;;5074491;28;20430;-67
2022/02/17 00:40:05;;;;;;;27.40;5.72;;;10.60;97.20;;;;;;5076184;28;20036;-67
2022/02/17 00:42:31;;;;;;;31.92;5.90;;;10.60;97.20;;;;;;5091703;28;20043;-67
2022/02/17 00:44:56;;;;;;;21.17;5.93;;;10.60;97.40;;;;;;5064717;28;20123;-67
2022/02/17 00:47:22;;;;;;;22.20;4.38;;;10.50;97.90;;;;;;5098234;28;20436;-67
2022/02/17 00:49:49;;;;;;;21.40;5.18;;;10.50;98.20;;;;;;5075947;28;20086;-67
2022/02/17 00:52:15;;;;;;;13.35;3.20;;;10.40;98.30;;;;;;5074675;28;20024;-67
2022/02/17 00:54:41;;;;;;;19.58;4.43;;;10.50;98.40;;;;;;5065662;28;20025;-67
2022/02/17 00:57:08;;;;;;;30.92;5.50;;;10.50;98.50;;;;;;5072817;28;20031;-67
2022/02/17 00:59:34;;;;;;;26.48;6.18;;;10.50;98.60;;;;;;5093028;28;20092;-67
2022/02/17 01:02:00;;;;;;;29.63;6.18;;;10.50;98.50;;;;;;5075403;28;20027;-67
2022/02/17 01:04:26;;;;;;;27.48;5.53;;;10.50;98.30;;;;;;5093814;28;20028;-67
2022/02/17 01:06:53;;;;;;;14.68;4.35;;;10.40;98.40;;;;;;5092717;28;20135;-67
2022/02/17 01:09:19;;;;;;;26.98;5.50;;;10.30;98.40;;;;;;5075350;28;20058;-67
2022/02/17 01:11:45;;;;;;;16.33;5.40;;;10.30;98.30;;;;;;5092498;28;20051;-67
2022/02/17 01:14:12;;;;;;;17.85;4.10;;;10.30;98.40;;;;;;5092043;28;20024;-67
2022/02/17 01:16:38;;;;;;;18.90;3.55;;;10.20;98.30;;;;;;5066276;28;20042;-67
2022/02/17 01:19:13;;;;;;;20.63;5.43;;;10.20;98.20;;;;;;5069212;28;20028;-67
2022/02/17 01:21:44;;;;;;;19.73;4.30;;;10.20;98.00;;;;;;5073145;28;20043;-67
2022/02/17 01:24:10;;;;;;;23.10;5.03;;;10.10;98.00;;;;;;5070723;28;20024;-67
2022/02/17 01:26:36;;;;;;;18.83;4.38;;;10.00;97.70;;;;;;5074255;28;20553;-67
2022/02/17 01:29:04;;;;;;;18.75;4.22;;;10.00;97.60;;;;;;5075044;28;20413;-67
2022/02/17 01:31:33;;;;;;;17.77;4.25;;;9.90;97.50;;;;;;5079648;28;20426;-67
2022/02/17 01:34:05;;;;;;;22.65;4.45;;;9.80;97.50;;;;;;5074470;28;20028;-67
2022/02/17 01:36:33;;;;;;;21.73;4.90;;;9.80;97.40;;;;;;5074613;28;20454;-67
2022/02/17 01:38:58;;;;;;;16.00;4.95;;;9.80;97.50;;;;;;5066513;28;20046;-67
2022/02/17 01:41:26;;;;;;;17.08;4.63;;;9.80;97.30;;;;;;5056092;28;20492;-67
2022/02/17 01:44:04;;;;;;;25.20;5.07;;;9.70;97.30;;;;;;5074846;28;20028;-67
2022/02/17 01:46:39;;;;;;;15.50;3.75;;;9.70;97.20;;;;;;5108563;28;20358;-67
2022/02/17 01:49:06;;;;;;;15.23;3.85;;;9.60;97.00;;;;;;5092368;28;20054;-67
2022/02/17 01:51:32;;;;;;;23.33;4.20;;;9.50;97.00;;;;;;5074596;28;20035;-67
2022/02/17 01:54:00;;;;;;;19.17;4.28;;;9.50;97.00;;;;;;5080334;28;20016;-67
2022/02/17 01:56:27;;;;;;;21.05;5.13;;;9.50;96.80;;;;;;5060642;28;20585;-68
2022/02/17 01:59:04;;;;;;;19.02;4.68;;;9.40;96.70;;;;;;5073017;28;20471;-68
2022/02/17 02:01:33;;;;;;;21.30;4.35;;;9.40;96.80;;;;;;5073766;28;20039;-68
2022/02/17 02:03:59;;;;;;;27.15;5.05;;;9.30;96.80;;;;;;5070991;28;20552;-72
2022/02/17 02:06:27;;;;;;;17.73;4.45;;;9.30;97.00;;;;;;5073861;28;20060;-68
2022/02/17 02:09:00;;;;;;;27.65;5.05;;;9.30;96.90;;;;;;5073087;28;20016;-68
2022/02/17 02:11:30;;;;;;;22.27;5.35;;;9.30;97.10;;;;;;5073931;28;20399;-68
2022/02/17 02:14:02;;;;;;;25.83;6.63;;;9.30;97.10;;;;;;5072191;28;20376;-68
2022/02/17 02:16:32;;;;;;;22.20;6.55;;;9.20;96.90;;;;;;5072431;28;20031;-68
2022/02/17 02:18:58;;;;;;;26.00;5.43;;;9.20;97.00;;;;;;5074545;28;20383;-68
2022/02/17 02:21:23;;;;;;;31.90;6.80;;;9.10;96.80;;;;;;5060946;28;20024;-68
2022/02/17 02:23:50;;;;;;;26.13;5.05;;;9.10;96.80;;;;;;5073188;28;20386;-68
2022/02/17 02:26:15;;;;;;;16.42;4.97;;;9.00;96.80;;;;;;5074464;28;20032;-68
2022/02/17 02:28:42;;;;;;;33.25;6.07;;;9.00;96.80;;;;;;5056903;28;20052;-68
2022/02/17 02:31:08;;;;;;;24.48;6.53;;;9.00;96.70;;;;;;5064591;28;20028;-68
2022/02/17 02:33:35;;;;;;;24.30;4.65;;;9.00;96.60;;;;;;5069592;28;20031;-68
2022/02/17 02:36:01;;;;;;;30.85;6.95;;;9.00;96.50;;;;;;5065753;28;20098;-68
2022/02/17 02:38:29;;;;;;;27.58;6.07;;;9.00;96.30;;;;;;5054844;28;20029;-68
2022/02/17 02:40:55;;;;;;;34.47;8.30;;;9.00;96.30;;;;;;5054690;28;20377;-68
2022/02/17 02:43:42;;;;;;;30.65;6.65;;;9.00;96.20;;;;;;5061928;28;20028;-68
2022/02/17 02:46:11;;;;;;;26.95;6.20;;;8.90;95.90;;;;;;5073990;28;20039;-68
2022/02/17 02:48:41;;;;;;;28.52;6.40;;;9.00;96.10;;;;;;5067937;28;20407;-68
2022/02/17 02:51:09;;;;;;;37.08;7.95;;;8.90;96.10;;;;;;5071757;28;20063;-68
2022/02/17 02:53:35;;;;;;;36.38;7.13;;;8.90;96.10;;;;;;5064208;28;20052;-68
2022/02/17 02:56:01;;;;;;;32.42;8.25;;;8.80;96.20;;;;;;5071470;28;20042;-68
2022/02/17 02:58:27;;;;;;;22.50;6.35;;;8.80;96.20;;;;;;5073257;28;20074;-66
2022/02/17 03:00:53;;;;;;;30.90;5.90;;;8.80;96.10;;;;;;5070169;28;20519;-65
2022/02/17 03:03:19;;;;;;;27.00;5.95;;;8.70;96.00;;;;;;5088999;28;20073;-66
2022/02/17 03:05:45;;;;;;;31.70;6.53;;;8.70;96.20;;;;;;5090898;28;20118;-66
2022/02/17 03:08:13;;;;;;;26.30;4.80;;;8.70;95.90;;;;;;5065849;28;20384;-66
2022/02/17 03:10:39;;;;;;;33.45;7.18;;;8.70;96.10;;;;;;5068700;28;20032;-66
2022/02/17 03:13:10;;;;;;;28.80;6.63;;;8.70;96.10;;;;;;5073419;28;20031;-66
2022/02/17 03:15:37;;;;;;;22.20;4.88;;;8.70;96.00;;;;;;5091809;28;20039;-66
2022/02/17 03:18:03;;;;;;;32.53;5.78;;;8.70;96.10;;;;;;5063931;28;20024;-66
2022/02/17 03:20:29;;;;;;;27.95;5.70;;;8.70;96.10;;;;;;5052724;28;20032;-66
2022/02/17 03:22:54;;;;;;;24.35;6.47;;;8.70;96.10;;;;;;5083434;28;20069;-67
2022/02/17 03:25:22;;;;;;;26.98;6.85;;;8.70;96.20;;;;;;5069325;28;20394;-66
2022/02/17 03:27:48;;;;;;;26.80;5.43;;;8.60;96.10;;;;;;5063395;28;20119;-66
2022/02/17 03:30:37;;;;;;;29.73;7.28;;;8.70;96.20;;;;;;5077518;28;20399;-66
2022/02/17 03:33:13;;;;;;;24.70;5.88;;;8.60;96.20;;;;;;5076862;28;20101;-66
2022/02/17 03:35:39;;;;;;;40.25;7.90;;;8.70;96.30;;;;;;5062818;28;20060;-66
2022/02/17 03:38:06;;;;;;;25.98;6.38;;;8.70;96.30;;;;;;5065361;28;20098;-66
2022/02/17 03:40:36;;;;;;;22.35;6.03;;;8.70;96.30;;;;;;5063074;28;20079;-66
2022/02/17 03:43:01;;;;;;;28.42;6.65;;;8.70;96.20;;;;;;5068157;28;20033;-66
2022/02/17 03:45:27;;;;;;;27.88;6.45;;;8.70;96.20;;;;;;5070268;28;20051;-66
2022/02/17 03:48:04;;;;;;;30.75;6.15;;;8.70;96.20;;;;;;5067413;28;20034;-66
2022/02/17 03:50:30;;;;;;;36.13;6.88;;;8.60;96.20;;;;;;5076858;28;20024;-66
2022/02/17 03:53:06;;;;;;;32.40;6.50;;;8.70;96.30;;;;;;5064131;28;20059;-66
2022/02/17 03:55:35;;;;;;;26.75;5.90;;;8.70;96.30;;;;;;5077069;28;20039;-66
2022/02/17 03:58:01;;;;;;;25.73;6.13;;;8.70;96.30;;;;;;5090115;28;20034;-66
2022/02/17 04:00:29;;;;;;;32.53;6.20;;;8.70;96.30;;;;;;5078172;28;20056;-66
2022/02/17 04:02:57;;;;;;;28.52;7.00;;;8.70;96.40;;;;;;5067018;28;20123;-66
2022/02/17 04:05:24;;;;;;;24.33;5.95;;;8.70;96.30;;;;;;5083501;28;20031;-66
2022/02/17 04:07:59;;;;;;;27.95;5.32;;;8.60;96.20;;;;;;5076830;28;20165;-66
2022/02/17 04:10:27;;;;;;;24.50;6.45;;;8.50;96.40;;;;;;5075631;28;20110;-66
2022/02/17 04:12:56;;;;;;;29.52;5.53;;;8.60;96.20;;;;;;5079376;28;20020;-66
2022/02/17 04:15:23;;;;;;;22.70;5.80;;;8.60;96.20;;;;;;5068213;28;20326;-66
2022/02/17 04:17:51;;;;;;;36.70;7.78;;;8.50;96.20;;;;;;5057699;28;20045;-66
2022/02/17 04:20:20;;;;;;;27.55;5.88;;;8.60;96.30;;;;;;5094614;28;20099;-66
2022/02/17 04:23:00;;;;;;;35.67;6.63;;;8.50;96.00;;;;;;5093913;28;20028;-66
2022/02/17 04:25:52;;;;;;;24.70;5.95;;;8.50;96.20;;;;;;5091014;28;20055;-65
2022/02/17 04:28:35;;;;;;;28.20;6.72;;;8.50;96.20;;;;;;5065617;28;20021;-66
2022/02/17 04:31:01;;;;;;;28.42;5.75;;;8.60;96.30;;;;;;5074950;28;20035;-66
2022/02/17 04:33:32;;;;;;;32.90;6.63;;;8.60;96.30;;;;;;5064473;28;20036;-66
2022/02/17 04:36:13;;;;;;;28.92;6.55;;;8.60;96.20;;;;;;5055900;28;20110;-66
2022/02/17 04:38:39;;;;;;;23.08;5.82;;;8.60;96.30;;;;;;5069793;28;20035;-66
2022/02/17 04:43:49;;;;;;;21.00;5.22;;;8.60;96.10;;;;;;5071834;28;20131;-66
2022/02/17 04:46:18;;;;;;;22.95;6.10;;;8.60;96.00;;;;;;5084149;28;20534;-66
2022/02/17 04:48:44;;;;;;;19.75;6.18;;;8.60;96.10;;;;;;5075442;28;20032;-66
2022/02/17 04:51:12;;;;;;;27.45;5.75;;;8.60;96.10;;;;;;5075392;28;20047;-66
2022/02/17 04:53:38;;;;;;;31.00;5.35;;;8.50;96.10;;;;;;5074603;28;20024;-66
2022/02/17 04:56:05;;;;;;;29.38;6.10;;;8.60;96.30;;;;;;5075318;28;20032;-66
2022/02/17 04:58:35;;;;;;;26.13;6.78;;;8.60;96.30;;;;;;5061599;28;20467;-66
2022/02/17 05:01:01;;;;;;;25.88;5.75;;;8.60;96.00;;;;;;5067422;28;20090;-66
2022/02/17 05:03:47;;;;;;;34.58;7.40;;;8.60;96.20;;;;;;5060993;28;20020;-66
2022/02/17 05:06:18;;;;;;;31.08;6.57;;;8.60;96.10;;;;;;5082920;28;20039;-66
2022/02/17 05:08:53;;;;;;;25.17;4.70;;;8.60;96.10;;;;;;5075416;28;20031;-67
2022/02/17 05:11:20;;;;;;;32.85;4.78;;;8.60;96.20;;;;;;5074637;28;20024;-66
2022/02/17 05:13:47;;;;;;;32.65;7.32;;;8.60;96.30;;;;;;5055470;28;20483;-66
2022/02/17 05:16:15;;;;;;;20.83;5.85;;;8.50;96.00;;;;;;5069226;28;20024;-66
2022/02/17 05:18:41;;;;;;;31.42;6.18;;;8.60;96.10;;;;;;5074732;28;20113;-66
2022/02/17 05:21:13;;;;;;;22.65;5.88;;;8.60;96.00;;;;;;5061976;28;20032;-66
2022/02/17 05:23:57;;;;;;;24.23;5.07;;;8.60;96.00;;;;;;5093695;28;20051;-66
2022/02/17 05:26:43;;;;;;;25.52;5.47;;;8.70;96.00;;;;;;5080939;28;20062;-66
2022/02/17 05:29:24;;;;;;;29.95;6.63;;;8.60;96.00;;;;;;5074928;28;20020;-66
2022/02/17 05:32:07;;;;;;;27.02;5.75;;;8.60;95.90;;;;;;5075100;28;20110;-66
2022/02/17 05:35:00;;;;;;;27.60;6.37;;;8.60;96.10;;;;;;5064293;28;20036;-66
2022/02/17 05:37:39;;;;;;;24.10;5.30;;;8.60;96.00;;;;;;5073382;28;20021;-66
2022/02/17 05:40:23;;;;;;;30.75;7.30;;;8.60;96.00;;;;;;5078556;28;20040;-66
2022/02/17 05:42:49;;;;;;;26.95;6.10;;;8.60;96.00;;;;;;5093297;28;20020;-66
2022/02/17 05:45:14;;;;;;;24.17;5.53;;;8.70;95.90;;;;;;5092995;28;20039;-66
2022/02/17 05:47:41;;;;;;;36.78;7.00;;;8.70;95.80;;;;;;5082230;28;20024;-66
2022/02/17 05:50:07;;;;;;;25.27;5.65;;;8.70;95.80;;;;;;5075585;28;20028;-66
2022/02/17 05:52:33;;;;;;;19.83;4.93;;;8.60;95.80;;;;;;5082417;28;20043;-66
2022/02/17 05:54:59;;;;;;;22.15;5.18;;;8.60;95.80;;;;;;5088595;28;20024;-66
2022/02/17 05:57:24;;;;;;;24.08;5.90;;;8.70;95.90;;;;;;5091723;28;20502;-65
2022/02/17 05:59:50;;;;;;;28.80;6.30;;;8.70;95.60;;;;;;5080976;28;20036;-65
2022/02/17 06:02:17;;;;;;;20.48;5.07;;;8.70;95.70;;;;;;5089865;28;20557;-65
2022/02/17 06:04:43;;;;;;;18.55;4.38;;;8.70;95.70;;;;;;5097001;28;20122;-66
2022/02/17 06:07:10;;;;;;;24.00;5.20;;;8.80;95.80;;;;;;5090318;28;20020;-66
2022/02/17 06:09:36;;;;;;;26.75;6.18;;;8.80;95.60;;;;;;5088051;28;20039;-66
2022/02/17 06:12:03;;;;;;;25.67;4.93;;;8.80;95.70;;;;;;5092247;28;20490;-66
2022/02/17 06:14:29;;;;;;;24.73;4.65;;;8.70;95.70;;;;;;5091280;28;20028;-66
2022/02/17 06:16:55;;;;;;;25.50;4.68;;;8.70;95.70;;;;;;5090587;28;20020;-66
2022/02/17 06:19:20;;;;;;;26.58;6.28;;;8.80;95.80;;;;;;5091612;28;20500;-67
2022/02/17 06:21:46;;;;;;;25.23;4.57;;;8.80;95.80;;;;;;5091651;28;20059;-66
2022/02/17 06:24:12;;;;;;;38.47;8.77;;;8.80;95.80;;;;;;5090672;28;20395;-66
2022/02/17 06:26:37;;;;;;;35.97;7.00;;;8.80;95.30;;;;;;5087816;28;20044;-66
2022/02/17 06:29:03;;;;;;;28.88;5.63;;;8.80;95.60;;;;;;5089709;28;20069;-66
2022/02/17 06:31:29;;;;;;;27.67;4.85;;;8.80;95.50;;;;;;5087882;28;20119;-67
2022/02/17 06:33:54;;;;;;;27.80;5.15;;;8.80;95.80;;;;;;5090376;28;20020;-66
2022/02/17 06:36:20;;;;;;;24.98;5.72;;;8.80;95.70;;;;;;5090025;28;20482;-66
2022/02/17 06:38:45;;;;;;;35.00;6.10;;;8.80;95.60;;;;;;5090969;28;20035;-66
2022/02/17 06:41:15;;;;;;;28.60;5.10;;;8.80;95.10;;;;;;5085710;28;20028;-66
2022/02/17 06:43:40;;;;;;;27.33;5.47;;;8.80;95.50;;;;;;5090951;28;20039;-65
2022/02/17 06:46:07;;;;;;;21.30;4.85;;;8.80;95.10;;;;;;5091542;28;20024;-65
2022/02/17 06:48:33;;;;;;;17.80;4.93;;;8.80;95.20;;;;;;5091153;28;20475;-66
2022/02/17 06:50:59;;;;;;;26.17;4.68;;;8.80;94.90;;;;;;5090788;28;20035;-66
2022/02/17 06:53:24;;;;;;;24.98;4.07;;;8.80;95.10;;;;;;5091704;28;20035;-66
2022/02/17 06:55:50;;;;;;;22.95;5.55;;;8.80;94.90;;;;;;5091211;28;20032;-66
2022/02/17 06:58:16;;;;;;;24.60;4.60;;;8.80;94.90;;;;;;5087974;28;20533;-66
2022/02/17 07:00:42;;;;;;;23.10;4.55;;;8.80;94.90;;;;;;5085744;28;20526;-68
2022/02/17 07:03:08;;;;;;;23.50;4.32;;;8.70;95.00;;;;;;5094020;28;20024;-66
2022/02/17 07:05:35;;;;;;;18.83;3.80;;;8.80;95.10;;;;;;5095341;28;20861;-67
2022/02/17 07:08:00;;;;;;;16.40;3.28;;;8.70;95.10;;;;;;5095519;28;20379;-67
2022/02/17 07:13:10;;;;;;;25.35;4.97;;;8.80;95.20;;;;;;5093432;28;20111;-72
2022/02/17 07:15:37;;;;;;;20.35;3.95;;;8.80;95.00;;;;;;5091694;28;20119;-69
2022/02/17 07:18:04;;;;;;;20.35;4.43;;;8.80;95.10;;;;;;5091756;28;20025;-68
2022/02/17 07:20:30;;;;;;;22.85;5.22;;;8.70;95.10;;;;;;5094424;28;20044;-65
2022/02/17 07:22:57;;;;;;;25.45;4.65;;;8.70;95.00;;;;;;5091474;28;20491;-65
2022/02/17 07:25:23;;;;;;;25.90;5.13;;;8.70;94.90;;;;;;5086345;28;20111;-65
2022/02/17 07:27:49;;;;;;;25.13;4.75;;;8.70;94.30;;;;;;5095263;28;20026;-70
2022/02/17 07:30:15;;;;;;;29.83;4.55;;;8.80;94.30;;;;;;5094394;28;20099;-65
2022/02/17 07:32:42;;;;;;;26.80;4.15;;;8.80;94.50;;;;;;5080844;28;20028;-66
2022/02/17 07:35:08;;;;;;;27.75;5.10;;;8.90;94.70;;;;;;5094827;28;20024;-66
2022/02/17 07:37:34;;;;;;;20.65;4.03;;;8.90;94.40;;;;;;5095302;28;20058;-66
2022/02/17 07:39:59;;;;;;;22.58;4.07;;;8.90;94.60;;;;;;5094706;28;20028;-66
2022/02/17 07:42:25;;;;;;;24.92;5.13;;;8.90;94.40;;;;;;5093842;28;20114;-71
2022/02/17 07:44:56;;;;;;;22.60;5.28;;;8.90;94.40;;;;;;5094583;28;20129;-67
2022/02/17 07:47:23;;;;;;;25.52;5.82;;;8.90;94.50;;;;;;5094701;28;20040;-67
2022/02/17 07:49:49;;;;;;;17.55;3.30;;;8.90;94.50;;;;;;5095303;28;20032;-66
2022/02/17 07:52:15;;;;;;;25.83;5.47;;;8.80;94.70;;;;;;5095163;28;20062;-67
2022/02/17 07:54:41;;;;;;;19.92;4.63;;;8.80;94.70;;;;;;5085110;28;20486;-66
2022/02/17 07:57:07;;;;;;;23.40;4.55;;;8.80;94.90;;;;;;5088936;28;20032;-67
2022/02/17 07:59:32;;;;;;;15.63;4.45;;;8.80;95.10;;;;;;5094864;28;20031;-67
2022/02/17 08:01:58;;;;;;;12.77;3.55;;;8.80;95.10;;;;;;5094275;28;20032;-66
2022/02/17 08:04:24;;;;;;;26.90;4.53;;;8.80;95.10;;;;;;5094604;28;20510;-66
2022/02/17 08:06:50;;;;;;;21.27;4.60;;;8.80;95.10;;;;;;5074579;28;20557;-66
2022/02/17 08:09:15;;;;;;;18.80;4.80;;;8.80;95.00;;;;;;5084356;28;20383;-66
2022/02/17 08:11:41;;;;;;;29.70;3.65;;;8.70;94.90;;;;;;5093577;28;20051;-66
2022/02/17 08:14:07;;;;;;;25.70;5.75;;;8.80;95.20;;;;;;5094925;28;20059;-66
2022/02/17 08:16:33;;;;;;;17.48;4.88;;;8.80;95.10;;;;;;5093985;28;20060;-66
2022/02/17 08:18:59;;;;;;;21.35;4.25;;;8.70;95.20;;;;;;5094757;28;20515;-66
2022/02/17 08:21:24;;;;;;;26.10;4.78;;;8.70;95.20;;;;;;5093837;28;20111;-66
2022/02/17 08:23:50;;;;;;;21.98;4.45;;;8.70;95.40;;;;;;5094688;28;20058;-66
2022/02/17 08:26:16;;;;;;;26.25;4.75;;;8.70;95.40;;;;;;5076044;28;20047;-66
2022/02/17 08:28:44;;;;;;;24.60;4.45;;;8.70;95.40;;;;;;5094016;28;20028;-66
2022/02/17 08:31:10;;;;;;;20.55;4.18;;;8.70;95.10;;;;;;5088416;28;20040;-66
2022/02/17 08:33:36;;;;;;;15.40;3.17;;;8.70;95.20;;;;;;5087388;28;20031;-66
2022/02/17 08:36:04;;;;;;;24.15;4.60;;;8.80;95.20;;;;;;5080811;28;20032;-66
2022/02/17 08:38:31;;;;;;;26.67;5.28;;;8.80;94.80;;;;;;5094089;28;20098;-66
2022/02/17 08:40:59;;;;;;;36.25;6.53;;;8.70;94.40;;;;;;5094324;28;20640;-66
2022/02/17 08:43:25;;;;;;;21.85;3.25;;;8.80;94.90;;;;;;5080204;28;20035;-66
2022/02/17 08:45:52;;;;;;;18.70;4.65;;;8.80;95.00;;;;;;5090315;28;20503;-65
2022/02/17 08:48:18;;;;;;;23.73;4.38;;;8.80;94.20;;;;;;5093362;28;20028;-66
2022/02/17 08:50:44;;;;;;;16.70;4.55;;;8.80;94.70;;;;;;5093530;28;20116;-65
2022/02/17 08:53:11;;;;;;;31.67;5.00;;;8.80;94.90;;;;;;5091052;28;20031;-66
2022/02/17 08:55:36;;;;;;;21.17;5.18;;;8.80;95.10;;;;;;5080886;28;20029;-65
2022/02/17 08:58:02;;;;;;;14.82;3.17;;;8.70;95.20;;;;;;5093196;28;20039;-66
2022/02/17 09:00:28;;;;;;;16.45;4.18;;;8.80;95.40;;;;;;5093599;28;20083;-66
2022/02/17 09:02:54;;;;;;;25.75;4.80;;;8.80;95.40;;;;;;5093917;28;20103;-67
2022/02/17 09:05:20;;;;;;;21.15;4.00;;;8.70;95.50;;;;;;5102202;28;20467;-66
2022/02/17 09:07:46;;;;;;;24.77;5.05;;;8.80;95.60;;;;;;5094102;28;20074;-66
2022/02/17 09:10:12;;;;;;;16.42;4.28;;;8.80;95.30;;;;;;5089873;28;20038;-66
2022/02/17 09:12:38;;;;;;;20.88;4.68;;;8.80;95.40;;;;;;5083567;28;20036;-66
2022/02/17 09:15:05;;;;;;;26.60;5.90;;;8.90;95.30;;;;;;5089087;28;20085;-67
2022/02/17 09:17:31;;;;;;;15.15;3.25;;;8.90;95.00;;;;;;5084567;28;20039;-66
2022/02/17 09:19:57;;;;;;;22.90;4.78;;;8.90;95.50;;;;;;5092516;28;20028;-67
2022/02/17 09:22:22;;;;;;;14.85;4.00;;;8.90;95.50;;;;;;5093164;28;20188;-66
2022/02/17 09:24:49;;;;;;;21.40;4.32;;;8.90;95.30;;;;;;5092263;28;20036;-66
2022/02/17 09:27:15;;;;;;;19.65;5.15;;;8.90;95.30;;;;;;5093547;28;20032;-66
2022/02/17 09:29:41;;;;;;;21.77;4.18;;;8.80;95.30;;;;;;5093090;28;20154;-67
2022/02/17 09:32:09;;;;;;;24.20;4.57;;;8.80;95.40;;;;;;5092825;28;20039;-66
2022/02/17 09:34:37;;;;;;;23.95;4.65;;;8.80;95.30;;;;;;5085339;28;20078;-67
2022/02/17 09:37:03;;;;;;;22.77;5.15;;;8.80;95.30;;;;;;5086000;28;20056;-65
2022/02/17 09:39:33;;;;;;;18.77;4.65;;;8.80;95.40;;;;;;5079539;28;20547;-65
2022/02/17 09:42:01;;;;;;;23.95;5.47;;;8.80;95.50;;;;;;5078737;28;20043;-66
2022/02/17 09:44:27;;;;;;;35.60;4.10;;;8.80;95.50;;;;;;5081339;28;20028;-69
2022/02/17 09:46:53;;;;;;;24.98;3.90;;;8.80;95.40;;;;;;5091987;28;20123;-66
2022/02/17 09:49:20;;;;;;;21.50;4.97;;;8.80;95.40;;;;;;5092890;28;20110;-67
2022/02/17 09:51:48;;;;;;;22.33;4.53;;;8.70;95.40;;;;;;5092185;28;20085;-68
2022/02/17 09:54:13;;;;;;;26.33;4.88;;;8.80;95.20;;;;;;5089057;28;20431;-67
2022/02/17 09:56:41;;;;;;;23.50;4.85;;;8.80;95.40;;;;;;5084169;28;20036;-66
2022/02/17 09:59:07;;;;;;;27.63;4.00;;;8.80;95.40;;;;;;5074986;28;20071;-66
2022/02/17 10:01:36;;;;;;;20.00;5.60;;;8.80;95.40;;;;;;5083433;28;20076;-68
2022/02/17 10:04:12;;;;;;;23.38;4.30;;;8.80;95.50;;;;;;5094214;28;20031;-67
2022/02/17 10:06:53;;;;;;;23.60;4.20;;;8.80;95.40;;;;;;5095622;28;20043;-66
2022/02/17 10:09:20;;;;;;;28.52;5.47;;;8.80;95.40;;;;;;5090441;28;20052;-66
2022/02/17 10:11:48;;;;;;;22.92;5.38;;;8.80;95.40;;;;;;5091011;28;20028;-69
2022/02/17 10:14:19;;;;;;;25.15;3.28;;;8.80;95.30;;;;;;5090034;28;20077;-67
2022/02/17 10:17:09;;;;;;;16.63;4.28;;;8.80;95.40;;;;;;5090789;28;20082;-66
2022/02/17 10:19:42;;;;;;;21.73;3.97;;;8.80;95.40;;;;;;5077659;28;20028;-67
2022/02/17 10:22:11;;;;;;;25.50;5.05;;;8.80;95.50;;;;;;5091010;28;20032;-67
2022/02/17 10:24:48;;;;;;;27.05;4.10;;;8.80;95.50;;;;;;5086648;28;20029;-66
2022/02/17 10:27:22;;;;;;;21.40;3.95;;;8.80;95.50;;;;;;5083464;28;20479;-66
2022/02/17 10:30:13;;;;;;;28.27;4.03;;;8.80;95.40;;;;;;5077137;28;20374;-66
2022/02/17 10:33:07;;;;;;;20.55;3.60;;;8.80;95.50;;;;;;5086720;28;20037;-66
2022/02/17 10:35:55;;;;;;;25.42;5.05;;;8.90;95.50;;;;;;5087603;28;20390;-66
2022/02/17 10:38:21;;;;;;;26.58;4.90;;;8.90;95.30;;;;;;5095352;28;20483;-66
2022/02/17 10:40:54;;;;;;;31.30;4.63;;;8.90;95.30;;;;;;5095519;28;20429;-66
2022/02/17 10:43:20;;;;;;;18.13;4.13;;;8.80;95.40;;;;;;5094006;28;20473;-66
2022/02/17 10:45:50;;;;;;;19.40;3.92;;;8.80;95.40;;;;;;5094986;28;20036;-66
2022/02/17 10:48:20;;;;;;;15.68;4.05;;;8.80;95.40;;;;;;5079794;28;20542;-67
2022/02/17 10:51:07;;;;;;;29.67;5.22;;;8.80;95.40;;;;;;5094806;28;20039;-66
2022/02/17 10:53:47;;;;;;;23.33;4.78;;;8.80;95.40;;;;;;5088493;28;20036;-66
2022/02/17 10:56:15;;;;;;;22.27;3.17;;;8.90;95.40;;;;;;5092084;28;20044;-66
2022/02/17 10:58:46;;;;;;;22.45;4.38;;;8.90;95.40;;;;;;5094485;28;20024;-66
2022/02/17 11:01:13;;;;;;;22.90;5.05;;;8.80;95.40;;;;;;5094885;28;20058;-66
2022/02/17 11:03:40;;;;;;;22.60;4.45;;;8.90;95.30;;;;;;5093623;28;20046;-66
2022/02/17 11:06:08;;;;;;;23.65;5.53;;;8.80;95.40;;;;;;5104589;28;20122;-66
2022/02/17 11:08:37;;;;;;;19.55;4.18;;;8.80;95.60;;;;;;5094074;28;20020;-66
2022/02/17 11:11:04;;;;;;;27.83;4.53;;;8.80;95.50;;;;;;5094634;28;20036;-66
2022/02/17 11:13:31;;;;;;;25.20;3.92;;;8.80;95.40;;;;;;5093753;28;20533;-67
2022/02/17 11:16:03;;;;;;;23.23;4.80;;;8.80;95.40;;;;;;5095062;28;20501;-66
2022/02/17 11:18:29;;;;;;;21.48;4.85;;;8.80;95.40;;;;;;5093280;28;20032;-66
2022/02/17 11:20:57;;;;;;;22.10;4.05;;;8.90;95.30;;;;;;5094725;28;20476;-66
2022/02/17 11:23:36;;;;;;;19.30;4.65;;;8.90;95.40;;;;;;5085929;28;20027;-67
2022/02/17 11:26:18;;;;;;;20.15;4.13;;;9.00;95.50;;;;;;5087274;28;20341;-72
2022/02/17 11:28:43;;;;;;;33.58;5.82;;;9.10;95.40;;;;;;5082774;28;20032;-66
2022/02/17 11:31:11;;;;;;;25.75;4.45;;;9.20;95.30;;;;;;5093471;28;20035;-66
2022/02/17 11:33:57;;;;;;;19.58;4.88;;;9.20;95.40;;;;;;5093895;28;20428;-66
2022/02/17 11:36:24;;;;;;;16.25;3.33;;;9.20;95.50;;;;;;5093498;28;20032;-66
2022/02/17 11:39:09;;;;;;;17.55;3.80;;;9.20;95.40;;;;;;5081150;28;20028;-66
2022/02/17 11:41:36;;;;;;;19.95;4.20;;;9.20;95.30;;;;;;5094737;28;20040;-67
2022/02/17 11:44:13;;;;;;;19.33;3.70;;;9.20;95.10;;;;;;5094225;28;20024;-68
2022/02/17 11:46:42;;;;;;;18.45;3.20;;;9.20;95.10;;;;;;5090749;28;20048;-68
2022/02/17 11:49:12;;;;;;;21.98;4.28;;;9.10;95.20;;;;;;5094189;28;20387;-68
2022/02/17 11:51:38;;;;;;;25.80;4.00;;;9.20;95.10;;;;;;5087121;28;20039;-68
2022/02/17 11:54:19;;;;;;;16.58;4.03;;;9.30;94.90;;;;;;5091252;28;20388;-67
2022/02/17 11:56:50;;;;;;;22.52;5.75;;;9.30;95.10;;;;;;5093306;28;20088;-66
2022/02/17 11:59:30;;;;;;;19.55;4.35;;;9.30;94.60;;;;;;5093058;28;20391;-66
2022/02/17 12:02:08;;;;;;;25.05;3.88;;;9.30;94.80;;;;;;5086483;28;20793;-66
2022/02/17 12:04:34;;;;;;;16.95;4.03;;;9.30;95.10;;;;;;5090438;28;20057;-66
2022/02/17 12:07:06;;;;;;;22.73;4.82;;;9.30;95.00;;;;;;5092532;28;20479;-67
2022/02/17 12:09:38;;;;;;;25.48;4.97;;;9.40;94.90;;;;;;5093293;28;20407;-68
2022/02/17 12:12:09;;;;;;;20.60;4.40;;;9.40;94.80;;;;;;5092921;28;20039;-69
2022/02/17 12:14:59;;;;;;;17.45;3.63;;;9.40;94.70;;;;;;5087601;28;20376;-67
2022/02/17 12:17:29;;;;;;;23.00;4.57;;;9.50;94.70;;;;;;5082413;28;20037;-68
2022/02/17 12:20:18;;;;;;;26.88;4.80;;;9.50;95.00;;;;;;5073104;28;20029;-67
2022/02/17 12:22:50;;;;;;;24.88;4.15;;;9.60;94.70;;;;;;5084788;28;20040;-68
2022/02/17 12:25:20;;;;;;;22.20;4.00;;;9.60;94.90;;;;;;5085591;28;20151;-67
2022/02/17 12:28:06;;;;;;;19.98;3.90;;;9.70;94.80;;;;;;5092436;28;20107;-67
2022/02/17 12:30:39;;;;;;;22.63;3.83;;;9.70;95.10;;;;;;5091867;28;20036;-67
2022/02/17 12:33:24;;;;;;;18.00;4.05;;;9.80;95.10;;;;;;5092753;28;20059;-67
2022/02/17 12:35:58;;;;;;;18.42;3.28;;;9.80;94.80;;;;;;5092628;28;20534;-67
2022/02/17 12:38:28;;;;;;;19.25;4.60;;;9.80;94.80;;;;;;5091041;28;20063;-67
2022/02/17 12:40:59;;;;;;;24.40;4.32;;;9.80;94.80;;;;;;5092954;28;20038;-68
2022/02/17 12:43:36;;;;;;;20.55;4.88;;;9.80;94.70;;;;;;5092063;28;20043;-68
2022/02/17 12:46:04;;;;;;;18.75;3.65;;;9.70;94.80;;;;;;5080904;28;20044;-67
2022/02/17 12:48:32;;;;;;;19.52;3.97;;;9.70;94.60;;;;;;5092217;28;20032;-68
2022/02/17 12:50:58;;;;;;;23.25;4.03;;;9.70;94.80;;;;;;5092052;28;20047;-67
2022/02/17 12:53:25;;;;;;;24.60;4.40;;;9.70;94.80;;;;;;5092755;28;20016;-67
2022/02/17 12:55:53;;;;;;;15.25;3.65;;;9.80;94.70;;;;;;5090721;28;20590;-67
2022/02/17 12:58:31;;;;;;;18.15;3.33;;;9.70;94.80;;;;;;5091259;28;20051;-67
2022/02/17 13:00:58;;;;;;;16.08;4.07;;;9.80;94.90;;;;;;5080400;28;20434;-67